Time;durP1;ratioP1;P1;durP2;ratioP2;P2;SDS_P1;SDS_P2;PMS_P1;PMS_P2;Temp;Humidity;BMP_temperature;BMP_pressure;BME280_temperature;BME280_humidity;BME280_pressure;Samples;Min_cycle;Max_cycle;Signal;HPM_P1;HPM_P2
2021/09/18 00:01:14;;;;;;;11.05;6.72;;;13.10;94.50;;;;;;5050556;28;20021;-67
2021/09/18 00:03:40;;;;;;;14.15;8.02;;;13.00;94.60;;;;;;5050445;28;20028;-67
2021/09/18 00:06:06;;;;;;;16.08;7.82;;;13.00;94.70;;;;;;5050501;28;20057;-67
2021/09/18 00:08:31;;;;;;;26.90;8.63;;;12.90;94.70;;;;;;5032503;28;20385;-67
2021/09/18 00:10:57;;;;;;;16.02;8.30;;;12.80;94.80;;;;;;5050419;28;20021;-67
2021/09/18 00:13:22;;;;;;;24.35;9.60;;;12.80;94.90;;;;;;5050158;28;20036;-67
2021/09/18 00:15:48;;;;;;;41.85;9.75;;;12.70;94.90;;;;;;5050290;28;20382;-67
2021/09/18 00:18:13;;;;;;;12.43;8.52;;;12.60;94.90;;;;;;5050654;28;20135;-67
2021/09/18 00:20:39;;;;;;;11.50;8.32;;;12.60;95.00;;;;;;5050133;28;20025;-67
2021/09/18 00:23:05;;;;;;;10.77;7.55;;;12.60;95.00;;;;;;5049692;28;20021;-67
2021/09/18 00:25:30;;;;;;;10.15;7.35;;;12.60;95.00;;;;;;5050373;28;20028;-68
2021/09/18 00:27:56;;;;;;;12.70;7.22;;;12.60;95.00;;;;;;5049884;28;20071;-67
2021/09/18 00:30:21;;;;;;;9.65;7.25;;;12.50;95.00;;;;;;5049978;28;20037;-67
2021/09/18 00:32:47;;;;;;;11.75;7.07;;;12.50;95.10;;;;;;5049918;28;20027;-67
2021/09/18 00:35:12;;;;;;;9.00;6.65;;;12.50;95.10;;;;;;5050076;28;20447;-67
2021/09/18 00:37:38;;;;;;;8.88;6.90;;;12.50;95.00;;;;;;5050199;28;20025;-67
2021/09/18 00:40:06;;;;;;;10.60;6.60;;;12.50;95.00;;;;;;5050105;28;20366;-67
2021/09/18 00:42:31;;;;;;;11.75;6.30;;;12.50;95.10;;;;;;5049851;28;20021;-67
2021/09/18 00:44:57;;;;;;;9.13;6.45;;;12.50;95.10;;;;;;5049481;28;20087;-67
2021/09/18 00:47:23;;;;;;;9.95;6.43;;;12.40;95.00;;;;;;5050038;28;20017;-67
2021/09/18 00:49:48;;;;;;;8.95;5.60;;;12.40;95.00;;;;;;5049982;28;20473;-67
2021/09/18 00:52:19;;;;;;;7.90;5.88;;;12.40;95.00;;;;;;5043087;28;20025;-67
2021/09/18 00:54:49;;;;;;;9.05;5.97;;;12.40;95.00;;;;;;5049202;28;20108;-67
2021/09/18 00:57:16;;;;;;;7.28;5.53;;;12.40;95.10;;;;;;5050082;28;20124;-67
2021/09/18 00:59:42;;;;;;;8.98;6.07;;;12.40;95.10;;;;;;5049665;28;20021;-67
2021/09/18 01:02:08;;;;;;;6.18;5.35;;;12.40;95.10;;;;;;5050239;28;20062;-67
2021/09/18 01:04:36;;;;;;;9.25;5.65;;;12.40;95.00;;;;;;5049562;28;20031;-67
2021/09/18 01:07:02;;;;;;;8.15;5.70;;;12.30;95.00;;;;;;5049854;28;20060;-67
2021/09/18 01:09:28;;;;;;;7.20;5.70;;;12.30;95.00;;;;;;5049808;28;20113;-67
2021/09/18 01:11:54;;;;;;;6.72;4.80;;;12.30;95.00;;;;;;5050068;28;20025;-67
2021/09/18 01:14:20;;;;;;;7.30;4.97;;;12.30;95.00;;;;;;5049099;28;20362;-67
2021/09/18 01:16:45;;;;;;;7.75;5.00;;;12.30;95.00;;;;;;5049695;28;20391;-67
2021/09/18 01:19:11;;;;;;;6.38;5.25;;;12.20;94.90;;;;;;5049837;28;20574;-67
2021/09/18 01:21:37;;;;;;;6.28;5.30;;;12.20;94.90;;;;;;5049774;28;20469;-67
2021/09/18 01:24:03;;;;;;;6.72;5.20;;;12.20;95.00;;;;;;5049204;28;20025;-66
2021/09/18 01:26:30;;;;;;;5.90;4.93;;;12.20;95.00;;;;;;5049607;28;20029;-67
2021/09/18 01:28:56;;;;;;;7.60;4.97;;;12.10;95.00;;;;;;5048887;28;20365;-67
2021/09/18 01:31:21;;;;;;;7.85;5.40;;;12.10;94.90;;;;;;5031907;28;20285;-67
2021/09/18 01:33:50;;;;;;;5.97;5.03;;;12.00;94.90;;;;;;5049016;28;20033;-67
2021/09/18 01:36:15;;;;;;;7.75;5.15;;;12.00;94.90;;;;;;5049205;28;20071;-67
2021/09/18 01:38:41;;;;;;;7.10;4.78;;;12.00;95.00;;;;;;5049651;28;20021;-67
2021/09/18 01:41:06;;;;;;;5.57;4.57;;;12.00;95.00;;;;;;5049795;28;20506;-67
2021/09/18 01:43:32;;;;;;;5.40;4.70;;;12.00;95.00;;;;;;5031874;28;20436;-67
2021/09/18 01:45:58;;;;;;;5.75;4.85;;;12.00;94.90;;;;;;5031748;28;20392;-67
2021/09/18 01:48:23;;;;;;;5.93;4.43;;;11.90;94.90;;;;;;5049415;28;20505;-67
2021/09/18 01:50:57;;;;;;;5.50;4.43;;;11.90;94.90;;;;;;5049140;28;20033;-67
2021/09/18 01:53:24;;;;;;;5.15;4.55;;;11.80;95.00;;;;;;5042035;28;20029;-67
2021/09/18 01:55:51;;;;;;;4.85;4.32;;;11.80;95.00;;;;;;5049394;28;20057;-67
2021/09/18 01:58:18;;;;;;;7.70;4.65;;;11.80;95.00;;;;;;5049375;28;20029;-67
2021/09/18 02:00:50;;;;;;;6.57;4.43;;;11.80;94.90;;;;;;5049412;28;20017;-67
2021/09/18 02:03:16;;;;;;;;;;;11.70;94.90;;;;;;5052825;28;20052;-66
2021/09/18 02:05:41;;;;;;;4.32;3.92;;;11.70;95.00;;;;;;5052671;28;20307;-67
2021/09/18 02:08:07;;;;;;;6.05;4.47;;;11.60;95.00;;;;;;5053055;28;20028;-66
2021/09/18 02:10:33;;;;;;;5.07;4.13;;;11.60;95.10;;;;;;5052966;28;20487;-66
2021/09/18 02:13:01;;;;;;;4.32;3.88;;;11.60;95.10;;;;;;5052346;28;20037;-66
2021/09/18 02:15:27;;;;;;;6.72;5.30;;;11.70;95.10;;;;;;5052615;28;20440;-66
2021/09/18 02:17:53;;;;;;;4.78;4.30;;;11.70;95.20;;;;;;5034397;28;20097;-67
2021/09/18 02:20:22;;;;;;;4.25;3.70;;;11.70;95.10;;;;;;5052640;28;20092;-66
2021/09/18 02:22:47;;;;;;;5.13;4.43;;;11.70;95.10;;;;;;5052201;28;20176;-66
2021/09/18 02:25:15;;;;;;;5.90;4.55;;;11.70;95.00;;;;;;5052795;28;20402;-67
2021/09/18 02:27:41;;;;;;;5.90;4.32;;;11.60;95.00;;;;;;5052263;28;20098;-66
2021/09/18 02:30:09;;;;;;;5.05;4.22;;;11.60;95.00;;;;;;5052421;28;20033;-66
2021/09/18 02:32:35;;;;;;;5.55;4.05;;;11.60;95.00;;;;;;5051358;28;20021;-67
2021/09/18 02:35:09;;;;;;;5.30;4.65;;;11.60;95.00;;;;;;5052379;28;20029;-67
2021/09/18 02:37:35;;;;;;;9.32;5.13;;;11.60;95.10;;;;;;5052110;28;20021;-67
2021/09/18 02:40:02;;;;;;;13.02;5.40;;;11.50;95.10;;;;;;5052565;28;20104;-67
2021/09/18 02:42:28;;;;;;;16.05;6.20;;;11.50;95.20;;;;;;5032590;28;20017;-67
2021/09/18 02:47:22;;;;;;;16.75;6.60;;;11.40;95.20;;;;;;5037432;28;20080;-67
2021/09/18 02:49:47;;;;;;;17.58;6.82;;;11.30;95.30;;;;;;5031258;28;20499;-67
2021/09/18 02:52:13;;;;;;;7.65;5.60;;;11.20;95.30;;;;;;5016658;28;20030;-67
2021/09/18 02:54:38;;;;;;;7.47;5.60;;;11.20;95.50;;;;;;5012121;28;20062;-67
2021/09/18 02:57:04;;;;;;;14.20;5.43;;;11.20;95.60;;;;;;4994949;28;20025;-67
2021/09/18 02:59:30;;;;;;;12.20;5.63;;;11.20;95.60;;;;;;5012104;28;20052;-67
2021/09/18 03:01:56;;;;;;;9.93;5.57;;;11.20;95.60;;;;;;5012311;28;20084;-67
2021/09/18 03:04:22;;;;;;;16.10;5.35;;;11.10;95.60;;;;;;4994263;28;20018;-67
2021/09/18 03:06:47;;;;;;;11.23;5.32;;;11.10;95.60;;;;;;5012341;28;20040;-67
2021/09/18 03:09:13;;;;;;;6.32;5.10;;;11.00;95.70;;;;;;5012302;28;20493;-67
2021/09/18 03:11:38;;;;;;;9.00;5.38;;;10.90;95.70;;;;;;5012292;28;20068;-67
2021/09/18 03:14:04;;;;;;;7.68;4.97;;;10.90;95.80;;;;;;5011467;28;20080;-67
2021/09/18 03:16:29;;;;;;;5.25;4.75;;;10.90;95.80;;;;;;5011808;28;20029;-67
2021/09/18 03:18:55;;;;;;;8.10;4.97;;;10.90;95.90;;;;;;5012145;28;20114;-67
2021/09/18 03:21:20;;;;;;;7.75;4.70;;;10.80;95.90;;;;;;4994472;28;20029;-67
2021/09/18 03:23:46;;;;;;;5.72;4.93;;;10.80;95.90;;;;;;4994229;28;20026;-67
2021/09/18 03:26:12;;;;;;;6.22;5.00;;;10.70;95.90;;;;;;5012286;28;20022;-67
2021/09/18 03:28:37;;;;;;;6.88;5.22;;;10.70;96.00;;;;;;5011742;28;20048;-67
2021/09/18 03:31:03;;;;;;;6.90;4.80;;;10.70;96.10;;;;;;5011112;28;20041;-67
2021/09/18 03:33:28;;;;;;;7.00;5.05;;;10.70;96.10;;;;;;4993857;28;20034;-67
2021/09/18 03:35:54;;;;;;;9.30;4.97;;;10.70;96.10;;;;;;5011659;28;20033;-67
2021/09/18 03:38:20;;;;;;;15.52;5.60;;;10.70;96.00;;;;;;5011931;28;20474;-67
2021/09/18 03:40:45;;;;;;;8.02;5.28;;;10.70;95.90;;;;;;5011597;28;20029;-66
2021/09/18 03:43:11;;;;;;;10.20;5.70;;;10.60;95.90;;;;;;5008541;28;20019;-66
2021/09/18 03:45:37;;;;;;;8.70;4.88;;;10.60;96.00;;;;;;5010520;28;20063;-66
2021/09/18 03:48:03;;;;;;;9.32;4.63;;;10.50;95.80;;;;;;5011746;28;20033;-67
2021/09/18 03:50:29;;;;;;;8.73;5.28;;;10.40;95.80;;;;;;5011309;28;20026;-67
2021/09/18 03:52:54;;;;;;;7.55;5.70;;;10.30;96.00;;;;;;4993498;28;20371;-67
2021/09/18 03:55:20;;;;;;;7.75;5.63;;;10.30;96.20;;;;;;5011601;28;20034;-67
2021/09/18 03:57:45;;;;;;;7.53;5.55;;;10.30;96.20;;;;;;5011690;28;20420;-67
2021/09/18 04:00:12;;;;;;;7.50;5.47;;;10.30;96.30;;;;;;5010893;28;20022;-67
2021/09/18 04:02:38;;;;;;;6.30;4.68;;;10.30;96.30;;;;;;5010874;28;20022;-67
2021/09/18 04:05:03;;;;;;;7.05;5.57;;;10.40;96.30;;;;;;5011329;28;20029;-67
2021/09/18 04:07:30;;;;;;;9.75;6.38;;;10.40;96.20;;;;;;5011032;28;20036;-66
2021/09/18 04:09:56;;;;;;;10.55;5.70;;;10.40;96.20;;;;;;4993577;28;20040;-67
2021/09/18 04:12:21;;;;;;;7.68;5.45;;;10.40;96.30;;;;;;5011313;28;20101;-67
2021/09/18 04:14:47;;;;;;;8.40;5.80;;;10.40;96.30;;;;;;5010219;28;20034;-66
2021/09/18 04:17:12;;;;;;;10.05;5.90;;;10.30;96.30;;;;;;5010997;28;20057;-67
2021/09/18 04:19:38;;;;;;;9.23;5.68;;;10.30;96.30;;;;;;5011278;28;20025;-66
2021/09/18 04:22:04;;;;;;;12.07;5.95;;;10.30;96.30;;;;;;5010922;28;20145;-66
2021/09/18 04:24:30;;;;;;;9.05;5.47;;;10.30;96.40;;;;;;5010251;28;20018;-67
2021/09/18 04:26:56;;;;;;;7.20;5.18;;;10.30;96.40;;;;;;5016852;28;20488;-67
2021/09/18 04:29:21;;;;;;;9.90;6.10;;;10.30;96.60;;;;;;5015125;28;20127;-67
2021/09/18 04:31:47;;;;;;;9.88;5.88;;;10.30;96.40;;;;;;5010889;28;20371;-67
2021/09/18 04:34:12;;;;;;;10.48;5.47;;;10.30;96.60;;;;;;4992618;28;20026;-67
2021/09/18 04:36:38;;;;;;;7.60;5.43;;;10.30;96.40;;;;;;5010780;28;20088;-67
2021/09/18 04:39:04;;;;;;;9.70;5.72;;;10.30;96.40;;;;;;5010877;28;20022;-66
2021/09/18 04:41:30;;;;;;;13.50;6.22;;;10.30;96.40;;;;;;4993361;28;20026;-67
2021/09/18 04:43:56;;;;;;;39.78;5.60;;;10.30;96.30;;;;;;4991548;28;20371;-66
2021/09/18 04:46:25;;;;;;;40.05;5.18;;;10.20;96.20;;;;;;5009321;28;20042;-66
2021/09/18 04:48:51;;;;;;;49.30;5.03;;;10.10;96.20;;;;;;5010769;28;20108;-68
2021/09/18 04:51:17;;;;;;;43.72;5.00;;;10.00;96.30;;;;;;4993346;28;20030;-68
2021/09/18 04:53:42;;;;;;;9.73;4.90;;;10.00;96.40;;;;;;5010201;28;20029;-68
2021/09/18 04:56:08;;;;;;;54.17;5.97;;;10.00;96.50;;;;;;5010869;28;20029;-68
2021/09/18 04:58:33;;;;;;;53.60;5.20;;;10.00;96.60;;;;;;4992313;28;20029;-68
2021/09/18 05:00:59;;;;;;;45.53;5.28;;;9.90;96.50;;;;;;5010674;28;20033;-68
2021/09/18 05:03:24;;;;;;;13.68;5.13;;;9.90;96.50;;;;;;5010293;28;20501;-67
2021/09/18 05:05:50;;;;;;;59.92;5.32;;;9.90;96.70;;;;;;5010104;28;20033;-67
2021/09/18 05:08:16;;;;;;;30.75;6.45;;;9.90;96.80;;;;;;5010579;28;20080;-67
2021/09/18 05:10:43;;;;;;;7.20;5.15;;;9.80;96.80;;;;;;4992828;28;20160;-67
2021/09/18 05:13:08;;;;;;;20.88;5.22;;;9.90;96.90;;;;;;5009636;28;20045;-67
2021/09/18 05:15:34;;;;;;;7.10;5.05;;;9.90;97.00;;;;;;5010500;28;20026;-67
2021/09/18 05:18:00;;;;;;;42.17;5.93;;;9.90;97.00;;;;;;5010752;28;20029;-67
2021/09/18 05:20:26;;;;;;;39.92;5.90;;;9.90;97.00;;;;;;4992508;28;20050;-67
2021/09/18 05:22:51;;;;;;;20.23;5.10;;;9.90;96.90;;;;;;4992427;28;20033;-67
2021/09/18 05:25:17;;;;;;;7.72;5.30;;;9.90;96.90;;;;;;5008030;28;20379;-67
2021/09/18 05:27:43;;;;;;;26.50;6.35;;;9.90;97.00;;;;;;5010060;28;20442;-67
2021/09/18 05:30:10;;;;;;;10.38;5.35;;;9.90;97.10;;;;;;5009881;28;20033;-67
2021/09/18 05:32:35;;;;;;;10.30;5.53;;;9.90;97.10;;;;;;5009887;28;20026;-67
2021/09/18 05:35:01;;;;;;;22.80;5.85;;;9.90;97.20;;;;;;5010215;28;20462;-67
2021/09/18 05:37:27;;;;;;;14.75;5.53;;;10.00;97.10;;;;;;5012761;28;20072;-67
2021/09/18 05:39:52;;;;;;;13.15;5.28;;;10.00;97.10;;;;;;5014129;28;20511;-67
2021/09/18 05:42:18;;;;;;;20.05;5.85;;;10.00;97.10;;;;;;5013824;28;20073;-67
2021/09/18 05:44:44;;;;;;;8.60;5.90;;;10.00;97.20;;;;;;5013278;28;20044;-66
2021/09/18 05:47:09;;;;;;;9.25;5.35;;;9.90;97.10;;;;;;5013533;28;20509;-66
2021/09/18 05:49:35;;;;;;;11.95;4.57;;;9.90;97.20;;;;;;4996280;28;20116;-67
2021/09/18 05:52:01;;;;;;;23.35;5.28;;;10.00;97.40;;;;;;5013624;28;20030;-67
2021/09/18 05:54:29;;;;;;;25.02;4.63;;;10.00;97.30;;;;;;5013306;28;20390;-67
2021/09/18 05:56:55;;;;;;;7.32;4.28;;;10.00;97.20;;;;;;5013575;28;20053;-67
2021/09/18 05:59:21;;;;;;;20.10;4.60;;;10.00;97.30;;;;;;5014027;28;20498;-67
2021/09/18 06:01:56;;;;;;;14.88;4.85;;;10.00;97.30;;;;;;5013168;28;20041;-67
2021/09/18 06:04:21;;;;;;;6.22;4.70;;;10.00;97.40;;;;;;5013517;28;20030;-67
2021/09/18 06:06:47;;;;;;;14.70;5.40;;;10.00;97.40;;;;;;5013347;28;20059;-67
2021/09/18 06:09:13;;;;;;;8.73;5.22;;;10.00;97.40;;;;;;4995436;28;20034;-67
2021/09/18 06:11:38;;;;;;;8.25;5.88;;;10.00;97.40;;;;;;5013568;28;20659;-67
2021/09/18 06:14:04;;;;;;;15.23;5.10;;;10.10;97.60;;;;;;5012471;28;20030;-67
2021/09/18 06:16:30;;;;;;;10.85;4.95;;;10.10;97.40;;;;;;5013124;28;20029;-67
2021/09/18 06:18:56;;;;;;;8.93;5.00;;;10.20;97.50;;;;;;5013171;28;20359;-67
2021/09/18 06:21:22;;;;;;;6.45;4.13;;;10.20;97.50;;;;;;5013088;28;20029;-67
2021/09/18 06:23:48;;;;;;;10.10;4.50;;;10.20;97.50;;;;;;5012663;28;20026;-67
2021/09/18 06:26:16;;;;;;;8.48;4.35;;;10.30;97.50;;;;;;5013398;28;20025;-68
2021/09/18 06:28:43;;;;;;;12.05;4.78;;;10.30;97.40;;;;;;5006151;28;20097;-67
2021/09/18 06:31:08;;;;;;;9.65;4.45;;;10.30;97.50;;;;;;5013001;28;20104;-67
2021/09/18 06:33:34;;;;;;;12.35;4.10;;;10.30;97.70;;;;;;5012778;28;20029;-68
2021/09/18 06:36:00;;;;;;;15.23;4.70;;;10.30;97.40;;;;;;5013364;28;20022;-68
2021/09/18 06:38:26;;;;;;;5.60;3.85;;;10.30;97.30;;;;;;5012870;28;20041;-67
2021/09/18 06:40:54;;;;;;;8.35;3.78;;;10.30;97.40;;;;;;5012959;28;20018;-67
2021/09/18 06:43:21;;;;;;;19.17;4.70;;;10.40;97.40;;;;;;5012816;28;20737;-67
2021/09/18 06:45:47;;;;;;;9.35;4.30;;;10.40;97.40;;;;;;5012690;28;20045;-67
2021/09/18 06:48:13;;;;;;;9.52;4.20;;;10.40;97.30;;;;;;4995002;28;20033;-68
2021/09/18 06:50:40;;;;;;;8.55;4.03;;;10.40;97.40;;;;;;5012524;28;20022;-68
2021/09/18 06:53:06;;;;;;;10.85;4.50;;;10.50;97.40;;;;;;5011958;28;20492;-68
2021/09/18 06:55:32;;;;;;;12.05;4.80;;;10.50;97.30;;;;;;4994684;28;20560;-68
2021/09/18 06:57:58;;;;;;;11.55;4.50;;;10.60;97.50;;;;;;5012786;28;20080;-68
2021/09/18 07:00:23;;;;;;;12.98;4.03;;;10.70;97.40;;;;;;4994803;28;20034;-68
2021/09/18 07:02:49;;;;;;;21.35;4.65;;;10.70;97.30;;;;;;4994613;28;20028;-68
2021/09/18 07:05:15;;;;;;;26.83;4.30;;;10.80;97.30;;;;;;4994524;28;20124;-68
2021/09/18 07:07:40;;;;;;;12.30;4.28;;;10.80;97.30;;;;;;5012398;28;20030;-68
2021/09/18 07:10:07;;;;;;;14.38;4.13;;;10.90;97.30;;;;;;5012100;28;20045;-68
2021/09/18 07:12:33;;;;;;;10.50;4.10;;;11.00;97.30;;;;;;5011922;28;20104;-68
2021/09/18 07:14:58;;;;;;;12.55;5.30;;;11.10;97.40;;;;;;5011982;28;20029;-68
2021/09/18 07:17:24;;;;;;;13.25;4.70;;;11.20;97.40;;;;;;5012298;28;20026;-68
2021/09/18 07:19:50;;;;;;;4.78;4.25;;;11.40;97.50;;;;;;5012003;28;20052;-68
2021/09/18 07:22:15;;;;;;;8.95;4.55;;;11.60;97.40;;;;;;4994554;28;20022;-68
2021/09/18 07:24:41;;;;;;;5.07;4.57;;;11.70;97.20;;;;;;4994044;28;20022;-68
2021/09/18 07:27:07;;;;;;;9.10;4.32;;;11.90;97.20;;;;;;5005612;28;20483;-68
2021/09/18 07:29:33;;;;;;;8.13;4.50;;;12.00;97.20;;;;;;4994173;28;20037;-68
2021/09/18 07:31:58;;;;;;;5.93;4.68;;;12.30;97.10;;;;;;5012006;28;20102;-68
2021/09/18 07:34:24;;;;;;;6.40;4.53;;;12.40;96.90;;;;;;5011459;28;20478;-68
2021/09/18 07:36:50;;;;;;;5.22;4.63;;;12.70;96.80;;;;;;5011444;28;20115;-68
2021/09/18 07:39:16;;;;;;;8.85;4.70;;;12.90;96.60;;;;;;4994287;28;20462;-68
2021/09/18 07:41:42;;;;;;;6.20;4.30;;;13.20;96.40;;;;;;5011441;28;20032;-68
2021/09/18 07:44:08;;;;;;;5.25;3.80;;;13.60;96.00;;;;;;5011274;28;20053;-68
2021/09/18 07:46:33;;;;;;;4.90;4.40;;;13.90;95.70;;;;;;5011588;28;20065;-68
2021/09/18 07:49:00;;;;;;;6.53;4.70;;;14.30;95.60;;;;;;5011670;28;20096;-68
2021/09/18 07:51:26;;;;;;;6.07;5.20;;;14.60;95.40;;;;;;5011287;28;20073;-68
2021/09/18 07:53:52;;;;;;;6.55;5.22;;;15.00;94.90;;;;;;5010950;28;20026;-68
2021/09/18 07:56:18;;;;;;;5.85;4.60;;;15.50;94.70;;;;;;5011302;28;20026;-68
2021/09/18 07:58:44;;;;;;;6.03;5.32;;;16.00;94.20;;;;;;5010634;28;20026;-68
2021/09/18 08:01:10;;;;;;;6.43;5.50;;;16.50;93.20;;;;;;5011434;28;20065;-68
2021/09/18 08:03:35;;;;;;;6.78;4.80;;;16.80;92.70;;;;;;5010866;28;20095;-68
2021/09/18 08:06:01;;;;;;;5.20;4.65;;;17.10;92.50;;;;;;5011083;28;20037;-68
2021/09/18 08:08:26;;;;;;;4.85;4.38;;;17.40;92.20;;;;;;5011266;28;20018;-69
2021/09/18 08:10:52;;;;;;;4.93;4.43;;;17.60;92.10;;;;;;5010962;28;20022;-68
2021/09/18 08:13:18;;;;;;;6.32;5.70;;;17.90;91.80;;;;;;5010581;28;20025;-68
2021/09/18 08:15:44;;;;;;;8.07;5.40;;;17.90;91.60;;;;;;5011081;28;20084;-68
2021/09/18 08:18:09;;;;;;;5.25;4.75;;;17.70;91.50;;;;;;5011039;28;20018;-68
2021/09/18 08:20:35;;;;;;;6.35;5.65;;;17.60;92.20;;;;;;5010925;28;20105;-68
2021/09/18 08:23:01;;;;;;;5.70;5.10;;;17.70;92.80;;;;;;4993045;28;20102;-68
2021/09/18 08:25:26;;;;;;;7.85;5.45;;;17.70;92.90;;;;;;5010770;28;20030;-68
2021/09/18 08:27:52;;;;;;;6.45;5.53;;;17.80;93.30;;;;;;5004066;28;20627;-68
2021/09/18 08:30:18;;;;;;;7.28;6.30;;;17.90;93.30;;;;;;5009847;28;20033;-68
2021/09/18 08:32:44;;;;;;;8.32;6.93;;;18.00;93.30;;;;;;5030239;28;20124;-68
2021/09/18 08:35:10;;;;;;;8.25;6.60;;;18.00;92.90;;;;;;5012399;28;20474;-68
2021/09/18 08:37:36;;;;;;;8.63;6.97;;;17.90;93.00;;;;;;5012993;28;20025;-66
2021/09/18 08:40:03;;;;;;;9.73;6.68;;;17.90;93.00;;;;;;5026481;28;20339;-66
2021/09/18 08:42:28;;;;;;;10.60;6.97;;;17.80;93.10;;;;;;5010884;28;20018;-66
2021/09/18 08:44:54;;;;;;;9.25;7.57;;;17.80;93.00;;;;;;5026076;23;20079;-68
2021/09/18 08:47:22;;;;;;;9.35;7.68;;;17.80;93.00;;;;;;5065349;28;20048;-68
2021/09/18 08:49:48;;;;;;;10.75;8.30;;;17.80;93.30;;;;;;5069289;28;20384;-68
2021/09/18 08:52:13;;;;;;;10.70;8.10;;;17.90;93.00;;;;;;5047609;28;20021;-68
2021/09/18 08:54:40;;;;;;;9.07;7.10;;;17.90;92.50;;;;;;5049106;28;20033;-68
2021/09/18 08:57:07;;;;;;;10.52;7.75;;;17.90;92.40;;;;;;5047494;28;20146;-68
2021/09/18 08:59:39;;;;;;;10.32;8.43;;;17.80;92.40;;;;;;5050215;28;20102;-68
2021/09/18 09:02:11;;;;;;;7.47;6.32;;;17.80;92.30;;;;;;5050024;28;20603;-68
2021/09/18 09:04:37;;;;;;;7.80;6.00;;;17.70;92.50;;;;;;5020900;28;20041;-68
2021/09/18 09:07:04;;;;;;;6.20;5.60;;;17.80;92.30;;;;;;5030143;28;20025;-68
2021/09/18 09:09:57;;;;;;;7.55;6.15;;;17.80;92.00;;;;;;5019109;28;20131;-68
2021/09/18 09:12:31;;;;;;;9.70;6.30;;;17.80;92.10;;;;;;5054326;28;20021;-69
2021/09/18 09:14:58;;;;;;;9.82;6.68;;;17.80;92.00;;;;;;5053596;28;20062;-68
2021/09/18 09:17:33;;;;;;;8.88;6.00;;;18.00;92.50;;;;;;5053980;28;20036;-69
2021/09/18 09:20:00;;;;;;;9.88;6.75;;;18.20;92.60;;;;;;5054116;28;20022;-69
2021/09/18 09:22:44;;;;;;;9.93;6.63;;;18.40;92.20;;;;;;5038275;28;20445;-69
2021/09/18 09:25:28;;;;;;;9.48;6.93;;;18.50;91.90;;;;;;5034175;28;20077;-68
2021/09/18 09:27:55;;;;;;;8.05;6.57;;;18.70;91.80;;;;;;5061519;28;20495;-68
2021/09/18 09:30:29;;;;;;;8.88;5.88;;;18.80;91.70;;;;;;5063697;28;20037;-67
2021/09/18 09:33:03;;;;;;;7.93;6.93;;;18.90;91.50;;;;;;5053392;28;20167;-69
2021/09/18 09:35:28;;;;;;;7.70;6.45;;;19.00;91.60;;;;;;5053012;28;20021;-68
2021/09/18 09:37:56;;;;;;;8.40;6.75;;;19.20;91.60;;;;;;5033945;28;20083;-69
2021/09/18 09:40:33;;;;;;;10.70;7.13;;;19.30;91.30;;;;;;5033999;28;20040;-68
2021/09/18 09:42:59;;;;;;;10.05;6.18;;;19.30;90.70;;;;;;5033292;28;20148;-68
2021/09/18 09:45:25;;;;;;;6.65;5.55;;;19.30;90.70;;;;;;5033765;28;20061;-68
2021/09/18 09:48:04;;;;;;;5.95;5.22;;;19.30;90.80;;;;;;5033364;28;20445;-68
2021/09/18 09:50:30;;;;;;;7.30;6.05;;;19.40;90.90;;;;;;5068064;28;20089;-68
2021/09/18 09:52:56;;;;;;;8.70;5.93;;;19.60;91.10;;;;;;5052921;28;20504;-68
2021/09/18 09:55:23;;;;;;;8.05;6.03;;;19.70;90.80;;;;;;5053501;28;20044;-68
2021/09/18 09:57:58;;;;;;;7.63;6.65;;;19.80;90.70;;;;;;5053569;28;20013;-69
2021/09/18 10:00:46;;;;;;;31.13;21.63;;;20.00;90.40;;;;;;5053667;28;20040;-68
2021/09/18 10:03:14;;;;;;;11.90;8.65;;;20.20;90.30;;;;;;5052990;28;20017;-68
2021/09/18 10:05:42;;;;;;;11.38;8.48;;;20.30;90.50;;;;;;5033737;28;20103;-68
2021/09/18 10:08:12;;;;;;;10.85;9.18;;;20.40;90.30;;;;;;5035311;28;20227;-68
2021/09/18 10:10:40;;;;;;;10.73;9.40;;;20.60;90.20;;;;;;5034809;28;20092;-69
2021/09/18 10:13:08;;;;;;;12.02;9.45;;;20.70;90.20;;;;;;5052660;28;20029;-68
2021/09/18 10:15:35;;;;;;;12.07;8.85;;;20.80;90.10;;;;;;5052753;28;20024;-68
2021/09/18 10:18:02;;;;;;;9.77;8.52;;;20.90;89.90;;;;;;5053126;28;20033;-69
2021/09/18 10:23:15;;;;;;;10.35;7.13;;;21.10;88.80;;;;;;5031928;28;20473;-69
2021/09/18 10:25:45;;;;;;;9.05;6.88;;;21.10;88.60;;;;;;5032837;28;20526;-68
2021/09/18 10:28:20;;;;;;;7.45;6.35;;;21.20;88.00;;;;;;5065236;28;20020;-69
2021/09/18 10:30:53;;;;;;;7.85;6.88;;;21.20;87.40;;;;;;5037324;28;20507;-68
2021/09/18 10:33:40;;;;;;;7.82;4.97;;;21.20;86.90;;;;;;5052312;28;20032;-68
2021/09/18 10:36:17;;;;;;;9.13;5.32;;;21.30;86.70;;;;;;5052403;28;20029;-68
2021/09/18 10:38:45;;;;;;;7.50;6.20;;;21.40;86.20;;;;;;5052710;28;20028;-68
2021/09/18 10:41:13;;;;;;;11.25;8.75;;;21.50;85.90;;;;;;5052291;28;20021;-67
2021/09/18 10:43:42;;;;;;;13.40;10.80;;;21.60;86.20;;;;;;5049998;28;20023;-68
2021/09/18 10:46:10;;;;;;;13.85;10.10;;;21.70;86.30;;;;;;5033164;28;20056;-68
2021/09/18 10:48:38;;;;;;;10.77;8.73;;;21.80;85.90;;;;;;5038601;28;20357;-68
2021/09/18 10:51:04;;;;;;;13.65;9.85;;;21.90;85.90;;;;;;5071939;28;20021;-69
2021/09/18 10:53:30;;;;;;;10.40;9.18;;;22.00;85.80;;;;;;5054202;28;20029;-69
2021/09/18 10:56:02;;;;;;;11.00;9.02;;;22.10;85.80;;;;;;5072173;28;20392;-68
2021/09/18 10:58:27;;;;;;;9.40;8.10;;;22.20;85.20;;;;;;5052703;28;20420;-69
2021/09/18 11:00:57;;;;;;;11.10;9.27;;;22.20;85.10;;;;;;5048503;28;20065;-68
2021/09/18 11:03:35;;;;;;;10.20;8.65;;;22.10;84.00;;;;;;5037944;28;20052;-69
2021/09/18 11:06:01;;;;;;;10.18;8.25;;;22.00;83.90;;;;;;5037089;28;20040;-68
2021/09/18 11:08:35;;;;;;;9.90;8.23;;;22.00;84.50;;;;;;5048086;28;20032;-69
2021/09/18 11:11:06;;;;;;;8.93;7.97;;;22.00;84.00;;;;;;5052109;28;20108;-68
2021/09/18 11:13:37;;;;;;;13.02;9.13;;;22.10;84.30;;;;;;5051168;28;20420;-68
2021/09/18 11:16:16;;;;;;;11.73;8.23;;;22.20;84.10;;;;;;5051960;28;20056;-69
2021/09/18 11:18:44;;;;;;;10.52;8.77;;;22.30;83.30;;;;;;5051710;28;20039;-68
2021/09/18 11:21:09;;;;;;;12.45;9.57;;;22.30;83.60;;;;;;5033826;28;20112;-68
2021/09/18 11:23:38;;;;;;;15.40;10.15;;;22.40;83.50;;;;;;5036948;28;20108;-68
2021/09/18 11:26:35;;;;;;;8.88;7.10;;;22.30;82.70;;;;;;5013944;28;20084;-68
2021/09/18 11:29:34;;;;;;;8.35;7.47;;;22.30;82.80;;;;;;5061109;28;20066;-68
2021/09/18 11:32:14;;;;;;;8.07;6.85;;;22.30;83.20;;;;;;5072164;28;20488;-68
2021/09/18 11:34:45;;;;;;;8.82;7.18;;;22.30;82.40;;;;;;5069967;28;20040;-68
2021/09/18 11:37:20;;;;;;;9.82;6.78;;;22.20;82.90;;;;;;5071591;28;20150;-69
2021/09/18 11:39:53;;;;;;;9.65;6.65;;;22.10;82.60;;;;;;5059238;28;20032;-67
2021/09/18 11:42:26;;;;;;;;;;;22.10;83.00;;;;;;5050394;28;20377;-68
2021/09/18 11:45:11;;;;;;;10.55;7.60;;;22.20;84.30;;;;;;5050638;28;19992;-68
2021/09/18 11:47:45;;;;;;;7.45;6.60;;;22.30;83.10;;;;;;5051542;28;20048;-68
2021/09/18 11:50:32;;;;;;;10.15;8.60;;;22.40;83.10;;;;;;5064569;28;20322;-68
2021/09/18 11:53:11;;;;;;;12.80;7.95;;;22.50;81.30;;;;;;5070607;28;20097;-67
2021/09/18 11:55:40;;;;;;;10.25;7.20;;;22.40;81.20;;;;;;5071018;28;20056;-68
2021/09/18 11:58:20;;;;;;;7.45;6.57;;;22.50;81.30;;;;;;5043018;28;20665;-68
2021/09/18 12:00:51;;;;;;;9.82;7.95;;;22.60;82.10;;;;;;5031186;28;20029;-68
2021/09/18 12:03:35;;;;;;;7.82;7.03;;;22.70;81.50;;;;;;5030755;28;20130;-68
2021/09/18 12:06:10;;;;;;;7.13;6.43;;;22.90;81.40;;;;;;5030890;28;20037;-68
2021/09/18 12:08:37;;;;;;;10.90;8.30;;;23.10;81.10;;;;;;5038561;28;20029;-69
2021/09/18 12:11:09;;;;;;;7.60;6.53;;;23.20;81.10;;;;;;5046557;28;20055;-68
2021/09/18 12:13:40;;;;;;;9.55;7.07;;;23.30;80.60;;;;;;5045658;28;20029;-68
2021/09/18 12:16:07;;;;;;;9.75;8.70;;;23.30;80.50;;;;;;5035220;28;20068;-68
2021/09/18 12:18:38;;;;;;;9.45;7.80;;;23.30;79.90;;;;;;5031086;28;20032;-68
2021/09/18 12:21:08;;;;;;;9.63;7.00;;;23.30;79.70;;;;;;5030811;28;20374;-68
2021/09/18 12:23:59;;;;;;;8.50;6.18;;;23.40;80.50;;;;;;5012683;28;20334;-68
2021/09/18 12:26:31;;;;;;;6.63;5.75;;;23.50;80.20;;;;;;5032931;28;20079;-68
2021/09/18 12:29:07;;;;;;;8.50;7.55;;;23.70;80.00;;;;;;5070520;28;20020;-68
2021/09/18 12:31:33;;;;;;;10.00;7.70;;;23.80;79.70;;;;;;5040266;28;20021;-68
2021/09/18 12:34:07;;;;;;;7.72;6.55;;;23.80;79.30;;;;;;5030312;28;20436;-68
2021/09/18 12:36:33;;;;;;;9.73;6.07;;;23.80;78.40;;;;;;5030551;28;20036;-68
2021/09/18 12:38:59;;;;;;;7.45;6.50;;;24.00;79.60;;;;;;5030586;28;20028;-68
2021/09/18 12:41:30;;;;;;;6.55;5.95;;;24.20;79.00;;;;;;5012630;28;20037;-68
2021/09/18 12:44:20;;;;;;;8.15;6.68;;;24.30;79.00;;;;;;5030266;28;20109;-68
2021/09/18 12:46:50;;;;;;;41.38;32.47;;;24.60;78.90;;;;;;5029669;28;20038;-68
2021/09/18 12:49:16;;;;;;;9.13;7.57;;;24.70;78.40;;;;;;5047229;28;20016;-68
2021/09/18 12:51:44;;;;;;;7.13;6.07;;;24.90;77.90;;;;;;5070157;28;20070;-68